createdAt,value
2018-07-17T00:00:30.038Z,22.98
2018-07-17T00:01:30.124Z,22.95
2018-07-17T00:02:30.101Z,22.96
2018-07-17T00:03:30.128Z,23.01
2018-07-17T00:04:30.165Z,22.95
2018-07-17T00:05:30.185Z,22.92
2018-07-17T00:06:30.214Z,22.96
2018-07-17T00:07:30.248Z,22.91
2018-07-17T00:08:30.276Z,22.88
2018-07-17T00:09:30.363Z,22.80
2018-07-17T00:10:30.354Z,22.81
2018-07-17T00:11:30.379Z,22.73
2018-07-17T00:12:30.394Z,22.77
2018-07-17T00:13:30.435Z,22.78
2018-07-17T00:14:30.456Z,22.84
2018-07-17T00:15:30.491Z,22.77
2018-07-17T00:16:30.530Z,22.77
2018-07-17T00:17:30.553Z,22.77
2018-07-17T00:18:30.571Z,22.86
2018-07-17T00:19:30.622Z,22.86
2018-07-17T00:20:30.635Z,22.86
2018-07-17T00:21:30.666Z,22.89
2018-07-17T00:22:30.691Z,22.80
2018-07-17T00:23:30.726Z,22.76
2018-07-17T00:24:30.753Z,22.76
2018-07-17T00:25:30.788Z,22.74
2018-07-17T00:26:30.821Z,22.68
2018-07-17T00:27:30.841Z,22.70
2018-07-17T00:28:30.874Z,22.68
2018-07-17T00:29:30.900Z,22.74
2018-07-17T00:30:30.929Z,22.76
2018-07-17T00:31:30.959Z,22.67
2018-07-17T00:32:30.989Z,22.74
2018-07-17T00:33:31.028Z,22.76
2018-07-17T00:34:31.062Z,22.70
2018-07-17T00:35:31.093Z,22.71
2018-07-17T00:36:31.105Z,22.61
2018-07-17T00:37:31.160Z,22.71
2018-07-17T00:38:31.166Z,22.70
2018-07-17T00:39:31.192Z,22.65
2018-07-17T00:40:31.225Z,22.65
2018-07-17T00:41:31.262Z,22.70
2018-07-17T00:42:31.283Z,22.67
2018-07-17T00:43:31.311Z,22.55
2018-07-17T00:44:31.343Z,22.63
2018-07-17T00:45:31.373Z,22.65
2018-07-17T00:46:31.403Z,22.70
2018-07-17T00:47:31.438Z,22.71
2018-07-17T00:48:31.471Z,22.70
2018-07-17T00:49:31.495Z,22.67
2018-07-17T00:50:31.597Z,22.65
2018-07-17T00:51:31.556Z,22.70
2018-07-17T00:52:31.599Z,22.73
2018-07-17T00:53:31.613Z,22.68
2018-07-17T00:54:31.650Z,22.63
2018-07-17T00:55:31.673Z,22.71
2018-07-17T00:56:31.704Z,22.62
2018-07-17T00:57:31.729Z,22.58
2018-07-17T00:58:31.760Z,22.62
2018-07-17T00:59:31.788Z,22.55
2018-07-17T01:00:31.822Z,22.61
2018-07-17T01:01:31.850Z,22.68
2018-07-17T01:02:31.887Z,22.71
2018-07-17T01:03:31.909Z,22.71
2018-07-17T01:04:31.946Z,22.68
2018-07-17T01:05:31.971Z,22.68
2018-07-17T01:06:32.001Z,22.74
2018-07-17T01:07:32.036Z,22.68
2018-07-17T01:08:32.055Z,22.76
2018-07-17T01:09:32.091Z,22.74
2018-07-17T01:10:32.175Z,22.78
2018-07-17T01:11:32.146Z,22.65
2018-07-17T01:12:32.202Z,22.65
2018-07-17T01:13:32.206Z,22.73
2018-07-17T01:14:32.234Z,22.78
2018-07-17T01:15:32.275Z,22.58
2018-07-17T01:16:32.299Z,22.68
2018-07-17T01:17:32.326Z,22.68
2018-07-17T01:18:32.355Z,22.70
2018-07-17T01:19:32.384Z,22.71
2018-07-17T01:20:32.419Z,22.67
2018-07-17T01:21:32.442Z,22.70
2018-07-17T01:22:32.473Z,22.67
2018-07-17T01:23:32.504Z,22.71
2018-07-17T01:24:32.539Z,22.62
2018-07-17T01:25:32.560Z,22.56
2018-07-17T01:26:32.593Z,22.61
2018-07-17T01:27:32.641Z,22.55
2018-07-17T01:28:32.651Z,22.73
2018-07-17T01:29:32.682Z,22.58
2018-07-17T01:30:32.718Z,22.61
2018-07-17T01:31:32.736Z,22.61
2018-07-17T01:32:32.776Z,22.59
2018-07-17T01:33:32.812Z,22.61
2018-07-17T01:34:32.830Z,22.51
2018-07-17T01:35:32.854Z,22.56
2018-07-17T01:36:32.887Z,22.51
2018-07-17T01:37:32.921Z,22.46
2018-07-17T01:38:32.978Z,22.43
2018-07-17T01:39:32.984Z,22.44
2018-07-17T01:40:33.006Z,22.47
2018-07-17T01:41:33.040Z,22.47
2018-07-17T01:42:33.062Z,22.40
2018-07-17T01:43:33.094Z,22.33
2018-07-17T01:44:33.125Z,22.51
2018-07-17T01:45:33.154Z,22.46
2018-07-17T01:46:33.180Z,22.46
2018-07-17T01:47:33.216Z,22.53
2018-07-17T01:48:33.249Z,22.43
2018-07-17T01:49:33.277Z,22.47
2018-07-17T01:50:33.310Z,22.47
2018-07-17T01:51:33.327Z,22.40
2018-07-17T01:52:33.365Z,22.38
2018-07-17T01:53:33.392Z,22.41
2018-07-17T01:54:33.416Z,22.37
2018-07-17T01:55:33.446Z,22.34
2018-07-17T01:56:33.474Z,22.43
2018-07-17T01:57:33.503Z,22.38
2018-07-17T01:58:33.532Z,22.38
2018-07-17T01:59:33.578Z,22.43
2018-07-17T02:00:33.606Z,22.38
2018-07-17T02:01:33.651Z,22.44
2018-07-17T02:02:33.657Z,22.44
2018-07-17T02:03:33.686Z,22.40
2018-07-17T02:04:33.715Z,22.36
2018-07-17T02:05:33.753Z,22.38
2018-07-17T02:06:33.777Z,22.37
2018-07-17T02:07:33.805Z,22.37
2018-07-17T02:08:33.833Z,22.40
2018-07-17T02:09:33.873Z,22.40
2018-07-17T02:10:33.896Z,22.38
2018-07-17T02:11:33.922Z,22.38
2018-07-17T02:12:33.996Z,22.38
2018-07-17T02:13:33.984Z,22.38
2018-07-17T02:14:34.013Z,22.37
2018-07-17T02:15:34.040Z,22.33
2018-07-17T02:16:34.068Z,22.26
2018-07-17T02:17:34.098Z,22.25
2018-07-17T02:18:34.130Z,22.28
2018-07-17T02:19:34.169Z,22.30
2018-07-17T02:20:34.197Z,22.30
2018-07-17T02:21:34.227Z,22.34
2018-07-17T02:22:34.257Z,22.33
2018-07-17T02:23:34.277Z,22.33
2018-07-17T02:24:34.307Z,22.23
2018-07-17T02:25:34.333Z,22.23
2018-07-17T02:26:34.368Z,22.26
2018-07-17T02:27:34.394Z,22.19
2018-07-17T02:28:34.435Z,22.18
2018-07-17T02:29:34.450Z,22.16
2018-07-17T02:30:34.487Z,22.23
2018-07-17T02:31:34.513Z,22.23
2018-07-17T02:32:34.544Z,22.18
2018-07-17T02:33:34.571Z,22.21
2018-07-17T02:34:34.601Z,22.19
2018-07-17T02:35:34.634Z,22.12
2018-07-17T02:36:34.665Z,22.16
2018-07-17T02:37:34.686Z,22.15
2018-07-17T02:38:34.717Z,22.08
2018-07-17T02:39:34.747Z,22.16
2018-07-17T02:40:34.778Z,22.03
2018-07-17T02:41:34.807Z,22.08
2018-07-17T02:42:34.837Z,22.15
2018-07-17T02:43:34.872Z,22.15
2018-07-17T02:44:34.891Z,22.14
2018-07-17T02:45:34.927Z,22.10
2018-07-17T02:46:34.952Z,22.14
2018-07-17T02:47:34.993Z,22.07
2018-07-17T02:48:35.010Z,22.10
2018-07-17T02:49:35.042Z,22.15
2018-07-17T02:50:35.088Z,22.16
2018-07-17T02:51:35.108Z,22.16
2018-07-17T02:52:35.129Z,22.21
2018-07-17T02:53:35.156Z,22.18
2018-07-17T02:54:35.196Z,22.22
2018-07-17T02:55:35.217Z,22.08
2018-07-17T02:56:35.253Z,22.16
2018-07-17T02:57:35.278Z,22.18
2018-07-17T02:58:35.314Z,22.14
2018-07-17T02:59:35.343Z,22.10
2018-07-17T03:00:35.363Z,22.07
2018-07-17T03:01:35.399Z,22.04
2018-07-17T03:02:35.423Z,22.08
2018-07-17T03:03:35.477Z,22.07
2018-07-17T03:04:35.483Z,22.03
2018-07-17T03:05:35.517Z,22.08
2018-07-17T03:06:35.553Z,22.07
2018-07-17T03:07:35.571Z,22.08
2018-07-17T03:08:35.607Z,22.10
2018-07-17T03:09:35.629Z,22.10
2018-07-17T03:10:35.764Z,22.04
2018-07-17T03:11:35.693Z,22.07
2018-07-17T03:12:36.507Z,22.06
2018-07-17T03:13:35.748Z,22.06
2018-07-17T03:14:35.799Z,22.07
2018-07-17T03:15:35.805Z,22.12
2018-07-17T03:16:35.842Z,22.03
2018-07-17T03:17:35.870Z,22.10
2018-07-17T03:18:35.894Z,22.06
2018-07-17T03:19:35.925Z,22.04
2018-07-17T03:20:35.959Z,22.06
2018-07-17T03:21:36.017Z,22.03
2018-07-17T03:22:36.017Z,22.08
2018-07-17T03:23:36.042Z,22.07
2018-07-17T03:24:36.145Z,22.04
2018-07-17T03:25:36.104Z,22.01
2018-07-17T03:26:36.130Z,22.01
2018-07-17T03:27:36.161Z,22.04
2018-07-17T03:28:36.191Z,22.06
2018-07-17T03:29:36.231Z,22.08
2018-07-17T03:30:36.293Z,22.04
2018-07-17T03:31:36.280Z,22.12
2018-07-17T03:32:36.310Z,22.10
2018-07-17T03:33:36.334Z,22.14
2018-07-17T03:34:36.365Z,22.12
2018-07-17T03:35:36.395Z,22.10
2018-07-17T03:36:36.483Z,22.12
2018-07-17T03:37:36.465Z,22.08
2018-07-17T03:38:36.482Z,22.12
2018-07-17T03:39:36.524Z,22.06
2018-07-17T03:40:36.543Z,22.00
2018-07-17T03:41:36.574Z,22.04
2018-07-17T03:42:36.603Z,22.07
2018-07-17T03:43:36.630Z,22.06
2018-07-17T03:44:36.660Z,22.04
2018-07-17T03:45:36.686Z,22.08
2018-07-17T03:46:36.751Z,22.04
2018-07-17T03:47:36.744Z,22.01
2018-07-17T03:48:36.773Z,22.01
2018-07-17T03:49:36.808Z,22.04
2018-07-17T03:50:36.833Z,22.10
2018-07-17T03:51:36.868Z,21.99
2018-07-17T03:52:36.892Z,21.99
2018-07-17T03:53:36.922Z,22.06
2018-07-17T03:54:36.948Z,22.06
2018-07-17T03:55:36.977Z,22.00
2018-07-17T03:56:37.010Z,22.04
2018-07-17T03:57:37.048Z,22.03
2018-07-17T03:58:37.071Z,22.06
2018-07-17T03:59:37.096Z,22.01
2018-07-17T04:00:37.131Z,22.12
2018-07-17T04:01:37.166Z,22.08
2018-07-17T04:02:37.200Z,22.12
2018-07-17T04:03:37.222Z,22.00
2018-07-17T04:04:37.255Z,22.10
2018-07-17T04:05:37.283Z,22.14
2018-07-17T04:06:37.312Z,22.12
2018-07-17T04:07:37.335Z,22.06
2018-07-17T04:08:37.381Z,22.06
2018-07-17T04:09:37.391Z,22.06
2018-07-17T04:10:37.420Z,22.07
2018-07-17T04:11:37.472Z,22.06
2018-07-17T04:12:37.504Z,22.10
2018-07-17T04:13:37.516Z,22.07
2018-07-17T04:14:37.553Z,22.10
2018-07-17T04:15:37.565Z,22.14
2018-07-17T04:16:37.611Z,22.14
2018-07-17T04:17:37.640Z,22.14
2018-07-17T04:18:37.654Z,22.14
2018-07-17T04:19:37.688Z,22.10
2018-07-17T04:20:37.724Z,22.12
2018-07-17T04:21:37.772Z,22.15
2018-07-17T04:22:37.788Z,22.18
2018-07-17T04:23:37.823Z,22.10
2018-07-17T04:24:37.833Z,22.10
2018-07-17T04:25:37.864Z,22.18
2018-07-17T04:26:37.894Z,22.12
2018-07-17T04:27:37.919Z,22.18
2018-07-17T04:28:37.957Z,22.14
2018-07-17T04:29:37.995Z,22.15
2018-07-17T04:30:38.008Z,22.19
2018-07-17T04:31:38.060Z,22.18
2018-07-17T04:32:38.072Z,22.21
2018-07-17T04:33:38.095Z,22.19
2018-07-17T04:34:38.129Z,22.28
2018-07-17T04:35:38.173Z,22.25
2018-07-17T04:36:38.192Z,22.19
2018-07-17T04:37:38.209Z,22.30
2018-07-17T04:38:38.248Z,22.23
2018-07-17T04:39:38.272Z,22.25
2018-07-17T04:40:38.304Z,22.25
2018-07-17T04:41:38.328Z,22.25
2018-07-17T04:42:38.378Z,22.36
2018-07-17T04:43:38.390Z,22.36
2018-07-17T04:44:38.422Z,22.37
2018-07-17T04:45:38.450Z,22.40
2018-07-17T04:46:38.481Z,22.59
2018-07-17T04:47:38.508Z,22.63
2018-07-17T04:48:38.537Z,22.71
2018-07-17T04:49:38.567Z,22.68
2018-07-17T04:50:38.598Z,22.71
2018-07-17T04:51:38.633Z,22.59
2018-07-17T04:52:38.652Z,22.73
2018-07-17T04:53:38.687Z,22.73
2018-07-17T04:54:38.723Z,22.73
2018-07-17T04:55:38.742Z,22.67
2018-07-17T04:56:38.776Z,22.70
2018-07-17T04:57:38.801Z,22.68
2018-07-17T04:58:38.830Z,22.68
2018-07-17T04:59:38.865Z,22.70
2018-07-17T05:00:38.900Z,22.77
2018-07-17T05:01:38.990Z,22.76
2018-07-17T05:02:38.948Z,22.73
2018-07-17T05:03:38.989Z,22.74
2018-07-17T05:04:39.004Z,22.67
2018-07-17T05:05:39.043Z,22.68
2018-07-17T05:06:39.073Z,22.63
2018-07-17T05:07:39.105Z,22.65
2018-07-17T05:08:39.132Z,22.68
2018-07-17T05:09:39.155Z,22.71
2018-07-17T05:10:39.201Z,22.70
2018-07-17T05:11:39.212Z,22.74
2018-07-17T05:12:39.245Z,22.73
2018-07-17T05:13:39.269Z,22.73
2018-07-17T05:14:39.307Z,22.68
2018-07-17T05:15:39.331Z,22.71
2018-07-17T05:16:39.360Z,22.71
2018-07-17T05:17:39.388Z,22.70
2018-07-17T05:18:39.419Z,22.65
2018-07-17T05:19:39.466Z,22.71
2018-07-17T05:20:39.477Z,22.74
2018-07-17T05:21:39.521Z,22.81
2018-07-17T05:22:39.537Z,22.78
2018-07-17T05:23:39.583Z,22.80
2018-07-17T05:24:39.596Z,22.78
2018-07-17T05:25:39.623Z,22.84
2018-07-17T05:26:39.671Z,22.84
2018-07-17T05:27:39.681Z,22.84
2018-07-17T05:28:39.725Z,22.81
2018-07-17T05:29:39.760Z,22.77
2018-07-17T05:30:39.773Z,22.80
2018-07-17T05:31:39.808Z,22.74
2018-07-17T05:32:39.859Z,22.81
2018-07-17T05:33:39.862Z,22.80
2018-07-17T05:34:39.891Z,22.86
2018-07-17T05:35:39.930Z,22.77
2018-07-17T05:36:39.950Z,22.84
2018-07-17T05:37:39.983Z,22.84
2018-07-17T05:38:40.017Z,22.86
2018-07-17T05:39:40.037Z,22.84
2018-07-17T05:40:40.072Z,22.86
2018-07-17T05:41:40.094Z,22.86
2018-07-17T05:42:40.135Z,22.88
2018-07-17T05:43:40.207Z,22.92
2018-07-17T05:44:40.189Z,22.91
2018-07-17T05:45:40.212Z,22.99
2018-07-17T05:46:40.250Z,22.93
2018-07-17T05:47:40.272Z,23.02
2018-07-17T05:48:40.302Z,23.04
2018-07-17T05:49:40.330Z,23.01
2018-07-17T05:50:40.366Z,22.99
2018-07-17T05:51:40.403Z,23.02
2018-07-17T05:52:40.435Z,22.95
2018-07-17T05:53:40.450Z,23.02
2018-07-17T05:54:40.489Z,22.96
2018-07-17T05:55:40.532Z,22.95
2018-07-17T05:56:40.538Z,22.98
2018-07-17T05:57:40.573Z,23.04
2018-07-17T05:58:40.596Z,23.10
2018-07-17T05:59:40.629Z,22.96
2018-07-17T06:00:40.661Z,22.96
2018-07-17T06:01:40.693Z,22.91
2018-07-17T06:02:40.716Z,22.99
2018-07-17T06:03:40.748Z,22.96
2018-07-17T06:04:40.775Z,23.06
2018-07-17T06:05:40.813Z,23.06
2018-07-17T06:06:40.834Z,23.11
2018-07-17T06:07:40.861Z,23.18
2018-07-17T06:08:40.898Z,23.14
2018-07-17T06:09:40.933Z,23.17
2018-07-17T06:10:40.951Z,23.10
2018-07-17T06:11:40.979Z,23.16
2018-07-17T06:12:41.055Z,23.29
2018-07-17T06:13:41.049Z,23.26
2018-07-17T06:14:41.071Z,23.16
2018-07-17T06:15:41.097Z,23.23
2018-07-17T06:16:41.132Z,23.16
2018-07-17T06:17:41.171Z,23.32
2018-07-17T06:18:41.187Z,23.17
2018-07-17T06:19:41.220Z,23.14
2018-07-17T06:20:41.248Z,23.25
2018-07-17T06:21:41.276Z,23.21
2018-07-17T06:22:41.309Z,23.29
2018-07-17T06:23:41.343Z,23.21
2018-07-17T06:24:41.375Z,23.17
2018-07-17T06:25:41.392Z,23.21
2018-07-17T06:26:41.429Z,23.25
2018-07-17T06:27:41.464Z,23.25
2018-07-17T06:28:41.487Z,23.34
2018-07-17T06:29:41.519Z,23.33
2018-07-17T06:30:41.563Z,23.40
2018-07-17T06:31:41.576Z,23.39
2018-07-17T06:32:41.615Z,23.49
2018-07-17T06:33:41.646Z,23.47
2018-07-17T06:34:41.699Z,23.55
2018-07-17T06:35:41.705Z,23.54
2018-07-17T06:36:41.721Z,23.66
2018-07-17T06:37:41.751Z,23.71
2018-07-17T06:38:41.815Z,23.66
2018-07-17T06:39:41.811Z,23.73
2018-07-17T06:40:41.843Z,23.71
2018-07-17T06:41:41.881Z,23.71
2018-07-17T06:42:41.900Z,23.82
2018-07-17T06:43:41.935Z,23.82
2018-07-17T06:44:41.999Z,23.86
2018-07-17T06:45:42.016Z,23.92
2018-07-17T06:46:42.020Z,23.96
2018-07-17T06:47:42.051Z,24.03
2018-07-17T06:48:42.078Z,24.00
2018-07-17T06:49:42.118Z,24.06
2018-07-17T06:50:42.153Z,24.06
2018-07-17T06:51:42.166Z,24.14
2018-07-17T06:52:42.206Z,24.06
2018-07-17T06:53:42.240Z,24.14
2018-07-17T06:54:42.259Z,24.18
2018-07-17T06:55:42.295Z,24.19
2018-07-17T06:56:42.316Z,24.26
2018-07-17T06:57:42.349Z,24.24
2018-07-17T06:58:42.383Z,24.32
2018-07-17T06:59:42.407Z,24.36
2018-07-17T07:00:42.437Z,24.46
2018-07-17T07:01:42.471Z,24.50
2018-07-17T07:02:42.502Z,24.58
2018-07-17T07:03:42.545Z,24.59
2018-07-17T07:04:42.557Z,24.50
2018-07-17T07:05:42.596Z,24.68
2018-07-17T07:06:42.616Z,24.66
2018-07-17T07:07:42.650Z,24.68
2018-07-17T07:08:42.669Z,24.56
2018-07-17T07:09:42.706Z,24.51
2018-07-17T07:10:42.738Z,24.50
2018-07-17T07:11:42.768Z,24.55
2018-07-17T07:12:42.797Z,24.48
2018-07-17T07:13:42.821Z,24.50
2018-07-17T07:14:42.864Z,24.51
2018-07-17T07:15:42.887Z,24.56
2018-07-17T07:16:42.917Z,24.53
2018-07-17T07:17:42.940Z,24.58
2018-07-17T07:18:43.024Z,24.53
2018-07-17T07:19:42.998Z,24.56
2018-07-17T07:20:43.031Z,24.59
2018-07-17T07:21:43.061Z,24.62
2018-07-17T07:22:43.095Z,24.68
2018-07-17T07:23:43.123Z,24.53
2018-07-17T07:24:43.151Z,24.55
2018-07-17T07:25:43.183Z,24.53
2018-07-17T07:26:43.209Z,24.53
2018-07-17T07:27:43.260Z,24.55
2018-07-17T07:28:43.269Z,24.61
2018-07-17T07:29:43.299Z,24.65
2018-07-17T07:30:43.333Z,24.53
2018-07-17T07:31:43.367Z,24.59
2018-07-17T07:32:43.515Z,24.55
2018-07-17T07:33:43.423Z,24.68
2018-07-17T07:34:43.455Z,24.68
2018-07-17T07:35:43.479Z,24.63
2018-07-17T07:36:43.512Z,24.59
2018-07-17T07:37:43.545Z,24.63
2018-07-17T07:38:43.569Z,24.65
2018-07-17T07:39:43.599Z,24.68
2018-07-17T07:40:43.652Z,24.69
2018-07-17T07:41:43.676Z,24.68
2018-07-17T07:42:43.693Z,24.74
2018-07-17T07:43:43.827Z,24.85
2018-07-17T07:44:43.747Z,24.81
2018-07-17T07:45:43.786Z,24.81
2018-07-17T07:46:43.813Z,24.79
2018-07-17T07:47:43.840Z,24.82
2018-07-17T07:48:43.872Z,24.82
2018-07-17T07:49:43.900Z,24.85
2018-07-17T07:50:43.948Z,24.97
2018-07-17T07:51:43.957Z,24.88
2018-07-17T07:52:44.610Z,24.94
2018-07-17T07:53:44.019Z,24.97
2018-07-17T07:54:44.055Z,25.09
2018-07-17T07:55:44.087Z,25.11
2018-07-17T07:56:44.111Z,25.14
2018-07-17T07:57:44.139Z,25.11
2018-07-17T07:58:44.178Z,25.06
2018-07-17T07:59:44.210Z,25.14
2018-07-17T08:00:44.228Z,25.09
2018-07-17T08:01:44.262Z,25.09
2018-07-17T08:02:44.287Z,25.18
2018-07-17T08:03:44.457Z,25.26
2018-07-17T08:04:44.350Z,25.21
2018-07-17T08:05:44.378Z,25.30
2018-07-17T08:06:44.408Z,25.21
2018-07-17T08:07:44.442Z,25.15
2018-07-17T08:08:44.471Z,25.16
2018-07-17T08:09:44.496Z,25.15
2018-07-17T08:10:44.542Z,25.14
2018-07-17T08:11:44.577Z,25.25
2018-07-17T08:12:44.598Z,25.26
2018-07-17T08:13:44.629Z,25.21
2018-07-17T08:14:44.648Z,25.19
2018-07-17T08:15:44.684Z,25.22
2018-07-17T08:16:44.720Z,25.21
2018-07-17T08:17:44.744Z,25.19
2018-07-17T08:18:44.772Z,25.12
2018-07-17T08:19:44.803Z,25.19
2018-07-17T08:20:44.828Z,25.21
2018-07-17T08:21:44.864Z,25.26
2018-07-17T08:22:44.888Z,25.26
2018-07-17T08:23:44.921Z,25.29
2018-07-17T08:24:44.950Z,25.30
2018-07-17T08:25:44.981Z,25.24
2018-07-17T08:26:45.018Z,25.29
2018-07-17T08:27:45.040Z,25.26
2018-07-17T08:28:45.080Z,25.36
2018-07-17T08:29:45.172Z,25.48
2018-07-17T08:30:45.131Z,25.48
2018-07-17T08:31:45.161Z,25.37
2018-07-17T08:32:45.190Z,25.39
2018-07-17T08:33:45.220Z,25.51
2018-07-17T08:34:45.249Z,25.54
2018-07-17T08:35:45.317Z,25.58
2018-07-17T08:36:45.315Z,25.59
2018-07-17T08:37:45.355Z,25.78
2018-07-17T08:38:45.370Z,25.81
2018-07-17T08:39:45.398Z,25.93
2018-07-17T08:40:45.429Z,25.93
2018-07-17T08:41:45.461Z,25.96
2018-07-17T08:42:45.489Z,25.95
2018-07-17T08:43:45.626Z,25.96
2018-07-17T08:44:45.556Z,25.91
2018-07-17T08:45:45.583Z,25.91
2018-07-17T08:46:45.611Z,26.01
2018-07-17T08:47:45.641Z,25.98
2018-07-17T08:48:45.675Z,26.07
2018-07-17T08:49:45.701Z,25.99
2018-07-17T08:50:45.732Z,26.13
2018-07-17T08:51:45.765Z,26.15
2018-07-17T08:52:45.969Z,26.19
2018-07-17T08:53:45.832Z,25.98
2018-07-17T08:54:45.915Z,26.13
2018-07-17T08:55:45.885Z,26.10
2018-07-17T08:56:45.920Z,26.01
2018-07-17T08:57:45.951Z,26.01
2018-07-17T08:58:45.976Z,26.15
2018-07-17T08:59:46.015Z,26.10
2018-07-17T09:00:46.037Z,26.11
2018-07-17T09:01:46.063Z,26.13
2018-07-17T09:02:46.092Z,26.30
2018-07-17T09:03:46.137Z,26.48
2018-07-17T09:04:46.153Z,26.49
2018-07-17T09:05:46.214Z,26.44
2018-07-17T09:06:46.225Z,26.53
2018-07-17T09:07:46.244Z,26.67
2018-07-17T09:08:46.291Z,26.78
2018-07-17T09:09:46.311Z,27.04
2018-07-17T09:10:46.338Z,27.15
2018-07-17T09:11:46.368Z,26.98
2018-07-17T09:12:46.397Z,26.96
2018-07-17T09:13:46.425Z,27.00
2018-07-17T09:14:46.460Z,26.92
2018-07-17T09:15:46.490Z,26.92
2018-07-17T09:16:46.523Z,27.10
2018-07-17T09:17:46.559Z,27.13
2018-07-17T09:18:46.596Z,27.07
2018-07-17T09:19:46.612Z,27.22
2018-07-17T09:20:46.645Z,27.34
2018-07-17T09:21:46.680Z,27.37
2018-07-17T09:22:46.702Z,27.53
2018-07-17T09:23:46.735Z,27.38
2018-07-17T09:24:46.764Z,27.52
2018-07-17T09:25:46.797Z,27.67
2018-07-17T09:26:46.832Z,27.86
2018-07-17T09:27:46.860Z,27.91
2018-07-17T09:28:46.902Z,28.12
2018-07-17T09:29:46.919Z,28.19
2018-07-17T09:30:46.950Z,28.12
2018-07-17T09:31:46.991Z,28.43
2018-07-17T09:32:47.014Z,28.20
2018-07-17T09:33:47.041Z,27.83
2018-07-17T09:34:47.082Z,27.83
2018-07-17T09:35:47.106Z,27.79
2018-07-17T09:36:47.143Z,27.86
2018-07-17T09:37:47.163Z,27.93
2018-07-17T09:38:47.195Z,27.82
2018-07-17T09:39:47.226Z,28.08
2018-07-17T09:40:47.264Z,27.95
2018-07-17T09:41:47.290Z,27.81
2018-07-17T09:42:47.315Z,27.63
2018-07-17T09:43:47.351Z,27.61
2018-07-17T09:44:47.378Z,27.76
2018-07-17T09:45:47.414Z,28.01
2018-07-17T09:46:47.453Z,28.08
2018-07-17T09:47:47.476Z,28.16
2018-07-17T09:48:47.500Z,28.43
2018-07-17T09:49:47.532Z,28.60
2018-07-17T09:50:47.568Z,28.86
2018-07-17T09:51:47.598Z,29.00
2018-07-17T09:52:47.638Z,28.53
2018-07-17T09:53:47.659Z,28.53
2018-07-17T09:54:47.692Z,28.80
2018-07-17T09:55:47.721Z,29.10
2018-07-17T09:56:47.747Z,29.49
2018-07-17T09:57:47.774Z,29.52
2018-07-17T09:58:47.813Z,29.22
2018-07-17T09:59:47.843Z,29.22
2018-07-17T10:00:47.867Z,29.18
2018-07-17T10:01:48.000Z,29.59
2018-07-17T10:02:47.932Z,29.92
2018-07-17T10:03:47.966Z,29.98
2018-07-17T10:04:48.013Z,29.65
2018-07-17T10:05:48.026Z,29.69
2018-07-17T10:06:48.061Z,29.71
2018-07-17T10:07:48.089Z,29.71
2018-07-17T10:08:48.119Z,29.92
2018-07-17T10:09:48.169Z,29.95
2018-07-17T10:10:49.155Z,29.92
2018-07-17T10:11:48.214Z,30.10
2018-07-17T10:12:48.250Z,30.49
2018-07-17T10:13:48.289Z,30.32
2018-07-17T10:14:48.310Z,30.49
2018-07-17T10:15:48.338Z,30.93
2018-07-17T10:16:48.369Z,31.39
2018-07-17T10:17:48.400Z,31.70
2018-07-17T10:18:48.451Z,32.04
2018-07-17T10:19:48.636Z,32.22
2018-07-17T10:20:48.499Z,32.59
2018-07-17T10:21:48.531Z,33.15
2018-07-17T10:22:48.563Z,33.20
2018-07-17T10:23:48.601Z,33.31
2018-07-17T10:24:48.628Z,33.38
2018-07-17T10:25:48.656Z,33.55
2018-07-17T10:26:48.688Z,33.50
2018-07-17T10:27:48.723Z,33.32
2018-07-17T10:28:48.762Z,33.32
2018-07-17T10:29:48.778Z,33.09
2018-07-17T10:30:48.820Z,32.98
2018-07-17T10:31:48.846Z,32.85
2018-07-17T10:32:48.873Z,33.22
2018-07-17T10:33:48.907Z,33.66
2018-07-17T10:34:48.949Z,32.90
2018-07-17T10:35:48.972Z,32.82
2018-07-17T10:36:49.007Z,32.53
2018-07-17T10:37:49.035Z,32.56
2018-07-17T10:38:49.063Z,33.17
2018-07-17T10:39:49.098Z,33.50
2018-07-17T10:40:49.140Z,33.84
2018-07-17T10:41:49.163Z,34.33
2018-07-17T10:42:49.191Z,34.88
2018-07-17T10:43:49.229Z,34.89
2018-07-17T10:44:49.263Z,34.89
2018-07-17T10:45:49.288Z,35.00
2018-07-17T10:46:49.320Z,35.35
2018-07-17T10:47:49.352Z,35.91
2018-07-17T10:48:49.386Z,36.29
2018-07-17T10:49:49.422Z,36.24
2018-07-17T10:50:49.457Z,36.33
2018-07-17T10:51:49.489Z,36.63
2018-07-17T10:52:49.520Z,36.84
2018-07-17T10:53:49.552Z,37.38
2018-07-17T10:54:49.577Z,37.71
2018-07-17T10:55:49.617Z,38.01
2018-07-17T10:56:49.652Z,38.13
2018-07-17T10:57:49.677Z,37.92
2018-07-17T10:58:49.707Z,38.05
2018-07-17T10:59:49.745Z,38.35
2018-07-17T11:00:49.829Z,38.54
2018-07-17T11:01:49.813Z,38.91
2018-07-17T11:02:49.836Z,39.27
2018-07-17T11:03:49.880Z,39.82
2018-07-17T11:04:49.923Z,40.04
2018-07-17T11:05:49.948Z,39.89
2018-07-17T11:06:49.973Z,40.52
2018-07-17T11:07:50.011Z,40.86
2018-07-17T11:08:50.047Z,40.92
2018-07-17T11:09:50.094Z,41.41
2018-07-17T11:10:50.113Z,41.33
2018-07-17T11:11:50.139Z,41.37
2018-07-17T11:12:50.174Z,41.39
2018-07-17T11:13:50.214Z,41.53
2018-07-17T11:14:50.241Z,41.42
2018-07-17T11:15:50.279Z,41.74
2018-07-17T11:16:50.306Z,42.07
2018-07-17T11:17:50.345Z,41.91
2018-07-17T11:18:50.387Z,41.76
2018-07-17T11:19:50.435Z,40.89
2018-07-17T11:20:50.468Z,41.10
2018-07-17T11:21:50.482Z,40.52
2018-07-17T11:22:50.522Z,39.60
2018-07-17T11:23:50.561Z,39.10
2018-07-17T11:24:50.592Z,40.58
2018-07-17T11:25:50.624Z,41.17
2018-07-17T11:26:50.663Z,41.51
2018-07-17T11:27:50.702Z,41.52
2018-07-17T11:28:50.736Z,40.52
2018-07-17T11:29:50.787Z,38.54
2018-07-17T11:30:50.817Z,36.63
2018-07-17T11:31:50.857Z,36.28
2018-07-17T11:32:50.884Z,35.86
2018-07-17T11:33:50.913Z,34.55
2018-07-17T11:34:50.956Z,35.10
2018-07-17T11:35:50.984Z,35.12
2018-07-17T11:36:51.014Z,35.13
2018-07-17T11:37:51.058Z,34.85
2018-07-17T11:38:51.142Z,34.41
2018-07-17T11:39:51.117Z,34.24
2018-07-17T11:40:51.165Z,34.02
2018-07-17T11:41:51.205Z,33.73
2018-07-17T11:42:51.227Z,33.63
2018-07-17T11:43:51.256Z,33.45
2018-07-17T11:44:51.298Z,33.19
2018-07-17T11:45:51.320Z,33.04
2018-07-17T11:46:51.353Z,32.90
2018-07-17T11:47:51.446Z,32.54
2018-07-17T11:48:51.428Z,32.37
2018-07-17T11:49:51.455Z,32.08
2018-07-17T11:50:51.504Z,32.05
2018-07-17T11:51:51.522Z,31.66
2018-07-17T11:52:51.559Z,31.66
2018-07-17T11:53:51.596Z,31.48
2018-07-17T11:54:51.631Z,31.55
2018-07-17T11:55:51.665Z,31.28
2018-07-17T11:56:51.694Z,31.39
2018-07-17T11:57:51.724Z,31.37
2018-07-17T11:58:51.784Z,31.36
2018-07-17T11:59:51.785Z,31.22
2018-07-17T12:00:51.821Z,31.13
2018-07-17T12:01:51.859Z,31.11
2018-07-17T12:02:51.895Z,31.22
2018-07-17T12:03:51.921Z,31.08
2018-07-17T12:04:51.957Z,30.92
2018-07-17T12:05:52.086Z,30.81
2018-07-17T12:06:52.018Z,30.74
2018-07-17T12:07:52.042Z,30.52
2018-07-17T12:08:52.091Z,30.13
2018-07-17T12:09:52.110Z,30.05
2018-07-17T12:10:52.146Z,30.20
2018-07-17T12:11:52.173Z,30.11
2018-07-17T12:12:52.273Z,30.11
2018-07-17T12:13:52.250Z,29.99
2018-07-17T12:14:52.272Z,29.87
2018-07-17T12:15:52.307Z,30.11
2018-07-17T12:16:52.352Z,30.02
2018-07-17T12:17:52.365Z,29.94
2018-07-17T12:18:52.401Z,29.92
2018-07-17T12:19:52.537Z,29.99
2018-07-17T12:20:52.466Z,29.90
2018-07-17T12:21:52.501Z,29.94
2018-07-17T12:22:52.530Z,29.94
2018-07-17T12:23:52.560Z,29.84
2018-07-17T12:24:52.606Z,29.89
2018-07-17T12:25:52.641Z,29.83
2018-07-17T12:26:52.657Z,29.86
2018-07-17T12:27:52.689Z,29.83
2018-07-17T12:28:52.718Z,29.79
2018-07-17T12:29:52.755Z,29.87
2018-07-17T12:30:52.791Z,29.98
2018-07-17T12:31:52.818Z,29.80
2018-07-17T12:32:52.847Z,29.69
2018-07-17T12:33:52.889Z,29.71
2018-07-17T12:34:52.939Z,29.69
2018-07-17T12:35:52.948Z,29.69
2018-07-17T12:36:52.982Z,29.73
2018-07-17T12:37:53.013Z,29.69
2018-07-17T12:38:53.041Z,29.71
2018-07-17T12:39:53.084Z,29.74
2018-07-17T12:40:53.113Z,29.74
2018-07-17T12:41:53.140Z,29.76
2018-07-17T12:42:53.172Z,29.81
2018-07-17T12:43:53.211Z,29.86
2018-07-17T12:44:53.244Z,29.92
2018-07-17T12:45:53.264Z,29.96
2018-07-17T12:46:53.294Z,29.80
2018-07-17T12:47:53.334Z,29.76
2018-07-17T12:48:53.365Z,29.73
2018-07-17T12:49:53.414Z,29.67
2018-07-17T12:50:53.435Z,29.61
2018-07-17T12:51:53.488Z,29.62
2018-07-17T12:52:53.493Z,29.53